Terminal Aerodrome Forecast
Issued by NWS

Home | Current Version | Previous Version | Text Only | Print | Product List | Glossary On
Versions: 1 2 3 4 5 6 7 8 9 10 11 12 13 14 15 16 17 18 19
459
FTUS43 KICT 161731
TAFSLN
TAF
KSLN 161731Z 1618/1718 34010KT P6SM FEW250
     FM170900 VRB06KT P6SM SKC WS010/22025KT
     FM171400 19012KT P6SM SKC=

USA.gov is the U.S. government's official web portal to all federal, state and local government web resources and services.